Time;durP1;ratioP1;P1;durP2;ratioP2;P2;SDS_P1;SDS_P2;PMS_P1;PMS_P2;Temp;Humidity;BMP_temperature;BMP_pressure;BME280_temperature;BME280_humidity;BME280_pressure;Samples;Min_cycle;Max_cycle;Signal;HPM_P1;HPM_P2
2022/09/27 00:01:43;;;;;;;;;;;20.60;69.70;;;;;;4993435;28;847;-69
2022/09/27 00:04:10;;;;;;;;;;;20.60;69.60;;;;;;5008830;28;1983;-69
2022/09/27 00:06:35;;;;;;;;;;;20.60;69.70;;;;;;4992216;28;2146;-67
2022/09/27 00:09:01;;;;;;;;;;;20.60;69.70;;;;;;5013328;28;1373;-68
2022/09/27 00:11:27;;;;;;;;;;;20.60;69.80;;;;;;5012541;28;1252;-68
2022/09/27 00:13:54;;;;;;;;;;;20.60;69.80;;;;;;4995241;28;1289;-68
2022/09/27 00:16:20;;;;;;;;;;;20.60;69.80;;;;;;5013659;28;1418;-69
2022/09/27 00:18:45;;;;;;;;;;;20.60;69.70;;;;;;4996096;28;1345;-69
2022/09/27 00:21:11;;;;;;;;;;;20.60;69.70;;;;;;5013184;28;1437;-68
2022/09/27 00:23:36;;;;;;;;;;;20.60;69.80;;;;;;4995731;28;1964;-69
2022/09/27 00:26:02;;;;;;;;;;;20.60;69.80;;;;;;4996063;28;1418;-69
2022/09/27 00:28:27;;;;;;;;;;;20.60;69.80;;;;;;4996437;28;1498;-69
2022/09/27 00:30:53;;;;;;;;;;;20.60;69.80;;;;;;5013158;28;1271;-69
2022/09/27 00:33:18;;;;;;;;;;;20.60;69.80;;;;;;5012676;28;1356;-68
2022/09/27 00:35:44;;;;;;;;;;;20.60;69.70;;;;;;4995657;28;1851;-69
2022/09/27 00:38:10;;;;;;;;;;;20.60;69.80;;;;;;4995807;28;848;-68
2022/09/27 00:40:35;;;;;;;;;;;20.60;69.70;;;;;;5009949;28;946;-69
2022/09/27 00:43:00;;;;;;;;;;;20.50;69.70;;;;;;5009841;28;1910;-69
2022/09/27 00:45:26;;;;;;;;;;;20.60;69.90;;;;;;5008885;28;1277;-68
2022/09/27 00:47:55;;;;;;;;;;;20.50;69.80;;;;;;5008326;28;1069;-69
2022/09/27 00:50:21;;;;;;;;;;;20.60;69.80;;;;;;4994767;28;1206;-69
2022/09/27 00:52:47;;;;;;;;;;;20.50;69.80;;;;;;5007496;28;828;-69
2022/09/27 00:55:16;;;;;;;;;;;20.50;69.70;;;;;;5010471;28;1338;-69
2022/09/27 00:57:42;;;;;;;;;;;20.50;69.80;;;;;;5008279;28;1188;-68
2022/09/27 01:00:11;;;;;;;;;;;20.60;69.90;;;;;;4976728;28;1241;-69
2022/09/27 01:02:37;;;;;;;;;;;20.50;69.70;;;;;;4994972;28;1965;-70
2022/09/27 01:05:04;;;;;;;;;;;20.50;69.70;;;;;;4994691;28;1293;-70
2022/09/27 01:07:30;;;;;;;;;;;20.60;69.90;;;;;;4994053;28;1478;-70
2022/09/27 01:09:55;;;;;;;;;;;20.50;69.80;;;;;;5013398;28;781;-70
2022/09/27 01:12:20;;;;;;;;;;;20.50;69.70;;;;;;5008991;28;1006;-68
2022/09/27 01:15:04;;;;;;;;;;;20.50;69.80;;;;;;5009060;28;1270;-68
2022/09/27 01:17:48;;;;;;;;;;;20.50;69.90;;;;;;5010716;28;899;-68
2022/09/27 01:20:14;;;;;;;;;;;20.50;69.80;;;;;;5009749;28;967;-68
2022/09/27 01:22:58;;;;;;;;;;;20.50;70.70;;;;;;4994101;28;1918;-68
2022/09/27 01:25:56;;;;;;;;;;;20.50;69.90;;;;;;5007829;28;1363;-69
2022/09/27 01:28:40;;;;;;;;;;;20.50;69.90;;;;;;4966283;28;1359;-69
2022/09/27 01:31:19;;;;;;;;;;;20.50;69.90;;;;;;5011829;28;1043;-69
2022/09/27 01:34:03;;;;;;;;;;;20.50;69.90;;;;;;4993078;28;785;-69
2022/09/27 01:36:28;;;;;;;;;;;20.50;69.80;;;;;;5008885;28;1259;-69
2022/09/27 01:39:08;;;;;;;;;;;20.50;69.90;;;;;;5012431;28;812;-69
2022/09/27 01:41:47;;;;;;;;;;;20.50;69.80;;;;;;4994428;28;1010;-70
2022/09/27 01:44:16;;;;;;;;;;;20.50;69.90;;;;;;5008573;28;1973;-69
2022/09/27 01:46:44;;;;;;;;;;;20.50;69.80;;;;;;5009499;28;1253;-69
2022/09/27 01:49:11;;;;;;;;;;;20.50;69.80;;;;;;5009426;28;812;-69
2022/09/27 01:51:38;;;;;;;;;;;20.50;69.90;;;;;;5010056;28;846;-69
2022/09/27 01:54:04;;;;;;;;;;;20.50;69.90;;;;;;5008432;28;896;-69
2022/09/27 01:56:31;;;;;;;;;;;20.50;70.00;;;;;;4991108;28;1381;-70
2022/09/27 01:59:13;;;;;;;;;;;20.50;69.90;;;;;;5011450;28;871;-69
2022/09/27 02:01:39;;;;;;;;;;;20.50;69.80;;;;;;4999731;28;1436;-69
2022/09/27 02:04:04;;;;;;;;;;;20.50;69.90;;;;;;4993976;28;1894;-69
2022/09/27 02:06:32;;;;;;;;;;;20.50;69.90;;;;;;4987899;28;1287;-69
2022/09/27 02:09:02;;;;;;;;;;;20.50;69.90;;;;;;4994130;28;843;-69
2022/09/27 02:11:28;;;;;;;;;;;20.50;69.90;;;;;;5004060;28;800;-69
2022/09/27 02:13:53;;;;;;;;;;;20.50;69.90;;;;;;5009378;28;828;-70
2022/09/27 02:16:20;;;;;;;;;;;20.50;69.90;;;;;;5010230;28;1274;-70
2022/09/27 02:18:58;;;;;;;;;;;20.50;69.90;;;;;;5010393;28;886;-70
2022/09/27 02:21:24;;;;;;;;;;;20.50;70.00;;;;;;4993341;28;1514;-68
2022/09/27 02:23:51;;;;;;;;;;;20.50;69.90;;;;;;4994108;28;1906;-71
2022/09/27 02:26:21;;;;;;;;;;;20.50;69.90;;;;;;4992921;28;1363;-71
2022/09/27 02:28:49;;;;;;;;;;;20.50;70.00;;;;;;4991345;28;1384;-71
2022/09/27 02:31:15;;;;;;;;;;;20.50;69.90;;;;;;4974346;28;1169;-70
2022/09/27 02:33:51;;;;;;;;;;;20.50;69.90;;;;;;4991074;28;880;-69
2022/09/27 02:36:17;;;;;;;;;;;20.50;69.90;;;;;;5008455;28;1265;-69
2022/09/27 02:38:42;;;;;;;;;;;20.50;69.90;;;;;;5010025;28;851;-69
2022/09/27 02:41:18;;;;;;;;;;;20.50;69.90;;;;;;4972170;28;1244;-69
2022/09/27 02:43:44;;;;;;;;;;;20.50;70.00;;;;;;4993045;28;1911;-70
2022/09/27 02:46:15;;;;;;;;;;;20.50;70.00;;;;;;5005780;28;1577;-70
2022/09/27 02:48:50;;;;;;;;;;;20.50;69.90;;;;;;4992435;28;773;-70
2022/09/27 02:51:25;;;;;;;;;;;20.50;69.90;;;;;;5007272;28;809;-70
2022/09/27 02:54:09;;;;;;;;;;;20.50;69.90;;;;;;4985570;28;1263;-70
2022/09/27 02:56:53;;;;;;;;;;;20.50;70.00;;;;;;5006669;28;1262;-69
2022/09/27 02:59:37;;;;;;;;;;;20.50;70.00;;;;;;4990105;28;1430;-69
2022/09/27 03:02:18;;;;;;;;;;;20.50;69.90;;;;;;5009055;28;920;-69
2022/09/27 03:04:46;;;;;;;;;;;20.50;69.90;;;;;;5009172;28;1055;-69
2022/09/27 03:07:11;;;;;;;;;;;20.50;70.00;;;;;;4993390;28;1216;-69
2022/09/27 03:09:43;;;;;;;;;;;20.50;69.90;;;;;;5006993;28;887;-69
2022/09/27 03:12:09;;;;;;;;;;;20.50;70.00;;;;;;4992579;28;805;-68
2022/09/27 03:14:34;;;;;;;;;;;20.50;69.90;;;;;;4990725;28;1276;-68
2022/09/27 03:16:59;;;;;;;;;;;20.50;69.90;;;;;;5010598;28;1369;-67
2022/09/27 03:19:25;;;;;;;;;;;20.60;70.00;;;;;;5009794;28;948;-67
2022/09/27 03:21:50;;;;;;;;;;;20.50;70.00;;;;;;4995058;28;1242;-67
2022/09/27 03:24:16;;;;;;;;;;;20.50;70.00;;;;;;5004721;28;1962;-67
2022/09/27 03:26:41;;;;;;;;;;;20.50;70.00;;;;;;4992724;28;1579;-68
2022/09/27 03:29:07;;;;;;;;;;;20.50;70.00;;;;;;5010325;28;957;-67
2022/09/27 03:31:32;;;;;;;;;;;20.50;69.90;;;;;;4990690;28;1030;-69
2022/09/27 03:33:57;;;;;;;;;;;20.50;69.90;;;;;;5010021;28;1010;-69
2022/09/27 03:36:23;;;;;;;;;;;20.50;70.00;;;;;;4992868;28;1264;-68
2022/09/27 03:38:48;;;;;;;;;;;20.50;70.00;;;;;;4993740;28;919;-68
2022/09/27 03:41:14;;;;;;;;;;;20.50;70.00;;;;;;5010664;28;812;-68
2022/09/27 03:43:40;;;;;;;;;;;20.50;69.90;;;;;;5013445;28;1973;-67
2022/09/27 03:46:05;;;;;;;;;;;20.50;70.00;;;;;;4996376;28;1358;-67
2022/09/27 03:48:31;;;;;;;;;;;20.50;70.00;;;;;;4996941;28;877;-68
2022/09/27 03:50:56;;;;;;;;;;;20.50;70.00;;;;;;5013905;28;895;-69
2022/09/27 03:53:22;;;;;;;;;;;20.50;70.00;;;;;;4990770;28;4695;-66
2022/09/27 03:55:47;;;;;;;;;;;20.50;70.10;;;;;;4999623;28;4170;-66
2022/09/27 03:58:13;;;;;;;;;;;20.50;70.00;;;;;;4997257;28;1346;-66
2022/09/27 04:00:40;;;;;;;;;;;20.50;69.90;;;;;;5013238;28;808;-66
2022/09/27 04:03:05;;;;;;;;;;;20.50;69.90;;;;;;5013743;28;1969;-66
2022/09/27 04:05:31;;;;;;;;;;;20.50;69.90;;;;;;5011750;28;1244;-66
2022/09/27 04:07:57;;;;;;;;;;;20.50;69.90;;;;;;5007689;28;881;-66
2022/09/27 04:10:22;;;;;;;;;;;20.50;69.90;;;;;;5012304;28;982;-66
2022/09/27 04:12:48;;;;;;;;;;;20.50;70.00;;;;;;4994838;28;1063;-67
2022/09/27 04:15:13;;;;;;;;;;;20.50;70.00;;;;;;4993095;28;1301;-68
2022/09/27 04:17:41;;;;;;;;;;;20.50;70.70;;;;;;5004268;28;880;-68
2022/09/27 04:20:08;;;;;;;;;;;20.50;70.00;;;;;;4988251;28;1389;-70
2022/09/27 04:22:33;;;;;;;;;;;20.50;69.90;;;;;;4975316;28;1990;-71
2022/09/27 04:24:58;;;;;;;;;;;20.50;70.00;;;;;;4994646;28;1276;-71
2022/09/27 04:27:24;;;;;;;;;;;20.50;70.00;;;;;;5008885;28;1309;-69
2022/09/27 04:29:49;;;;;;;;;;;20.50;70.10;;;;;;5010442;28;802;-68
2022/09/27 04:32:15;;;;;;;;;;;20.50;70.00;;;;;;5012775;28;987;-68
2022/09/27 04:37:24;;;;;;;;;;;20.50;70.00;;;;;;4997389;28;851;-67
2022/09/27 04:39:50;;;;;;;;;;;20.50;70.00;;;;;;4992708;28;1234;-67
2022/09/27 04:42:16;;;;;;;;;;;20.50;70.00;;;;;;4995129;28;797;-67
2022/09/27 04:44:42;;;;;;;;;;;20.50;70.10;;;;;;4994821;28;1958;-67
2022/09/27 04:47:07;;;;;;;;;;;20.50;70.00;;;;;;5009476;28;1375;-67
2022/09/27 04:49:33;;;;;;;;;;;20.50;70.00;;;;;;4995128;28;1358;-68
2022/09/27 04:51:58;;;;;;;;;;;20.50;70.10;;;;;;4992468;28;920;-67
2022/09/27 04:54:23;;;;;;;;;;;20.50;70.10;;;;;;4993225;28;853;-67
2022/09/27 04:56:49;;;;;;;;;;;20.50;70.10;;;;;;5008639;28;1219;-67
2022/09/27 04:59:14;;;;;;;;;;;20.50;70.00;;;;;;4993715;28;1436;-67
2022/09/27 05:01:40;;;;;;;;;;;20.50;70.10;;;;;;5011656;28;975;-68
2022/09/27 05:04:05;;;;;;;;;;;20.50;70.00;;;;;;5011792;28;1947;-69
2022/09/27 05:06:31;;;;;;;;;;;20.50;70.10;;;;;;4994957;28;1357;-68
2022/09/27 05:08:57;;;;;;;;;;;20.50;70.00;;;;;;4991513;28;919;-69
2022/09/27 05:11:23;;;;;;;;;;;20.50;70.10;;;;;;5009683;28;895;-69
2022/09/27 05:13:49;;;;;;;;;;;20.50;70.00;;;;;;4992075;28;872;-69
2022/09/27 05:16:14;;;;;;;;;;;20.50;70.10;;;;;;5006337;28;1268;-70
2022/09/27 05:18:40;;;;;;;;;;;20.50;70.00;;;;;;4991776;28;907;-68
2022/09/27 05:21:06;;;;;;;;;;;20.50;70.00;;;;;;5010691;28;888;-67
2022/09/27 05:23:31;;;;;;;;;;;20.50;70.10;;;;;;5009249;28;1910;-72
2022/09/27 05:25:57;;;;;;;;;;;20.50;70.10;;;;;;4997442;28;1277;-71
2022/09/27 05:28:23;;;;;;;;;;;20.50;70.00;;;;;;4995868;28;1415;-71
2022/09/27 05:30:48;;;;;;;;;;;20.50;70.10;;;;;;5011054;28;930;-71
2022/09/27 05:33:14;;;;;;;;;;;20.50;70.10;;;;;;5010103;28;1102;-71
2022/09/27 05:35:41;;;;;;;;;;;20.50;70.00;;;;;;5001899;28;1392;-69
2022/09/27 05:38:06;;;;;;;;;;;20.50;70.10;;;;;;5011322;28;942;-69
2022/09/27 05:40:32;;;;;;;;;;;20.50;70.00;;;;;;5009217;28;1018;-68
2022/09/27 05:42:57;;;;;;;;;;;20.50;70.10;;;;;;5009806;28;1902;-66
2022/09/27 05:45:23;;;;;;;;;;;20.50;70.00;;;;;;4997565;28;2334;-68
2022/09/27 05:47:52;;;;;;;;;;;20.50;70.10;;;;;;4990051;28;1369;-68
2022/09/27 05:50:18;;;;;;;;;;;20.50;70.00;;;;;;5009165;28;857;-68
2022/09/27 05:52:43;;;;;;;;;;;20.50;70.00;;;;;;4987776;28;1165;-67
2022/09/27 05:55:09;;;;;;;;;;;20.60;70.00;;;;;;5010331;28;1530;-68
2022/09/27 05:57:35;;;;;;;;;;;20.60;70.00;;;;;;5007791;28;843;-69
2022/09/27 06:00:00;;;;;;;;;;;20.60;70.00;;;;;;5008464;28;843;-69
2022/09/27 06:02:26;;;;;;;;;;;20.60;69.90;;;;;;5005860;28;1965;-69
2022/09/27 06:04:51;;;;;;;;;;;20.60;69.90;;;;;;4990770;28;1247;-68
2022/09/27 06:07:17;;;;;;;;;;;20.60;69.90;;;;;;5007023;28;881;-68
2022/09/27 06:09:43;;;;;;;;;;;20.60;70.10;;;;;;5007076;28;860;-70
2022/09/27 06:12:10;;;;;;;;;;;20.60;70.20;;;;;;4993777;28;824;-68
2022/09/27 06:14:36;;;;;;;;;;;20.70;70.20;;;;;;5008463;28;919;-66
2022/09/27 06:17:03;;;;;;;;;;;20.70;70.10;;;;;;5009666;28;1286;-67
2022/09/27 06:19:28;;;;;;;;;;;20.70;70.10;;;;;;4992953;28;1019;-67
2022/09/27 06:21:54;;;;;;;;;;;20.80;70.00;;;;;;5011516;28;877;-68
2022/09/27 06:24:19;;;;;;;;;;;20.80;69.90;;;;;;5011640;28;1969;-68
2022/09/27 06:26:45;;;;;;;;;;;20.90;69.70;;;;;;5008440;28;1323;-68
2022/09/27 06:29:10;;;;;;;;;;;20.90;69.40;;;;;;5011442;28;1380;-69
2022/09/27 06:31:36;;;;;;;;;;;21.00;69.30;;;;;;4996319;28;1374;-68
2022/09/27 06:34:01;;;;;;;;;;;21.10;69.10;;;;;;4993862;28;808;-69
2022/09/27 06:36:27;;;;;;;;;;;21.20;68.80;;;;;;4992250;28;1922;-70
2022/09/27 06:38:52;;;;;;;;;;;21.30;68.60;;;;;;4988414;28;892;-70
2022/09/27 06:41:18;;;;;;;;;;;21.30;68.40;;;;;;4990602;28;1528;-69
2022/09/27 06:43:44;;;;;;;;;;;21.40;68.30;;;;;;4990855;28;1902;-70
2022/09/27 06:46:09;;;;;;;;;;;21.40;68.10;;;;;;4992850;28;1331;-70
2022/09/27 06:48:38;;;;;;;;;;;21.50;67.90;;;;;;4992888;28;2142;-70
2022/09/27 06:51:03;;;;;;;;;;;21.50;67.80;;;;;;4992035;28;1298;-71
2022/09/27 06:53:29;;;;;;;;;;;21.60;67.70;;;;;;4993335;28;1290;-70
2022/09/27 06:55:58;;;;;;;;;;;21.60;67.60;;;;;;5010428;28;1269;-72
2022/09/27 07:01:09;;;;;;;;;;;21.60;67.30;;;;;;5008604;28;761;-71
2022/09/27 07:03:38;;;;;;;;;;;21.70;67.40;;;;;;5009316;28;1906;-72
2022/09/27 07:06:05;;;;;;;;;;;21.70;67.20;;;;;;5009151;28;1357;-71
2022/09/27 07:08:30;;;;;;;;;;;21.70;67.10;;;;;;4992569;28;823;-69
2022/09/27 07:10:59;;;;;;;;;;;21.70;67.10;;;;;;5007379;28;865;-71
2022/09/27 07:13:29;;;;;;;;;;;21.70;67.00;;;;;;5008771;28;820;-71
2022/09/27 07:15:54;;;;;;;;;;;21.70;67.00;;;;;;5009807;28;1257;-71
2022/09/27 07:18:19;;;;;;;;;;;21.70;67.00;;;;;;5008988;28;889;-70
2022/09/27 07:20:45;;;;;;;;;;;21.70;67.00;;;;;;5011421;28;811;-71
2022/09/27 07:23:10;;;;;;;;;;;21.70;67.00;;;;;;5011415;28;1961;-70
2022/09/27 07:25:36;;;;;;;;;;;21.70;67.00;;;;;;4992619;28;1351;-71
2022/09/27 07:28:05;;;;;;;;;;;21.70;67.00;;;;;;5006763;28;1278;-71
2022/09/27 07:30:31;;;;;;;;;;;21.70;67.00;;;;;;5005179;28;990;-71
2022/09/27 07:33:00;;;;;;;;;;;21.70;67.00;;;;;;4991913;28;1410;-71
2022/09/27 07:35:26;;;;;;;;;;;21.70;67.00;;;;;;4992693;28;1344;-71
2022/09/27 07:37:51;;;;;;;;;;;21.70;67.10;;;;;;5008165;28;892;-70
2022/09/27 07:40:17;;;;;;;;;;;21.70;67.10;;;;;;5009699;28;1026;-71
2022/09/27 07:42:43;;;;;;;;;;;21.70;67.10;;;;;;4992827;28;1906;-69
2022/09/27 07:45:09;;;;;;;;;;;21.70;67.10;;;;;;5008541;28;1440;-71
2022/09/27 07:47:36;;;;;;;;;;;21.70;67.20;;;;;;5008053;28;1248;-71
2022/09/27 07:50:02;;;;;;;;;;;21.70;67.20;;;;;;5006934;28;1837;-69
2022/09/27 07:52:28;;;;;;;;;;;21.60;67.10;;;;;;4991827;28;2110;-68
2022/09/27 07:54:53;;;;;;;;;;;21.60;67.20;;;;;;5008798;28;1284;-71
2022/09/27 07:57:20;;;;;;;;;;;21.60;67.20;;;;;;5009795;28;1526;-71
2022/09/27 07:59:45;;;;;;;;;;;21.60;67.20;;;;;;4993495;28;1376;-70
2022/09/27 08:02:15;;;;;;;;;;;21.60;67.20;;;;;;5010274;28;1393;-70
2022/09/27 08:04:42;;;;;;;;;;;21.60;67.30;;;;;;5007274;28;1951;-71
2022/09/27 08:07:08;;;;;;;;;;;21.60;67.40;;;;;;4976645;28;1489;-71
2022/09/27 08:09:33;;;;;;;;;;;21.60;67.40;;;;;;4992251;28;1347;-70
2022/09/27 08:11:59;;;;;;;;;;;21.60;67.40;;;;;;4994566;28;1622;-70
2022/09/27 08:14:24;;;;;;;;;;;21.60;67.40;;;;;;5008210;28;1013;-71
2022/09/27 08:16:50;;;;;;;;;;;21.60;67.50;;;;;;5009857;28;1395;-71
2022/09/27 08:19:15;;;;;;;;;;;21.60;67.50;;;;;;5009306;28;1530;-71
2022/09/27 08:21:41;;;;;;;;;;;21.50;67.50;;;;;;5010103;28;1575;-69
2022/09/27 08:24:06;;;;;;;;;;;21.50;67.50;;;;;;5009248;28;1963;-69
2022/09/27 08:26:32;;;;;;;;;;;21.50;67.60;;;;;;5006916;28;1303;-70
2022/09/27 08:28:57;;;;;;;;;;;21.50;67.60;;;;;;5011053;28;1718;-68
2022/09/27 08:31:24;;;;;;;;;;;21.50;67.60;;;;;;5013150;28;1345;-72
2022/09/27 08:33:50;;;;;;;;;;;21.50;67.70;;;;;;5013101;28;899;-69
2022/09/27 08:36:16;;;;;;;;;;;21.50;67.80;;;;;;5012002;28;1291;-69
2022/09/27 08:38:41;;;;;;;;;;;21.50;67.80;;;;;;5013988;28;1635;-71
2022/09/27 08:41:16;;;;;;;;;;;21.50;67.80;;;;;;5011089;28;1297;-73
2022/09/27 08:43:47;;;;;;;;;;;21.50;67.80;;;;;;5010424;28;1977;-72
2022/09/27 08:46:25;;;;;;;;;;;21.40;67.80;;;;;;5010865;28;1338;-73
2022/09/27 08:48:52;;;;;;;;;;;21.40;67.90;;;;;;5011253;28;1338;-73
2022/09/27 08:51:18;;;;;;;;;;;21.40;67.90;;;;;;5008419;28;1690;-72
2022/09/27 08:53:48;;;;;;;;;;;21.40;68.00;;;;;;4993193;28;1384;-71
2022/09/27 08:56:14;;;;;;;;;;;21.40;68.00;;;;;;4995670;28;1343;-71
2022/09/27 08:58:40;;;;;;;;;;;21.40;68.10;;;;;;5005903;28;867;-70
2022/09/27 09:01:06;;;;;;;;;;;21.40;68.10;;;;;;4995070;28;869;-71
2022/09/27 09:03:35;;;;;;;;;;;21.40;68.10;;;;;;5008101;28;1971;-71
2022/09/27 09:06:21;;;;;;;;;;;21.40;68.10;;;;;;4995672;28;1369;-71
2022/09/27 09:09:01;;;;;;;;;;;21.40;68.20;;;;;;5011659;28;1355;-71
2022/09/27 09:14:37;;;;;;;;;;;21.30;68.20;;;;;;4998036;28;1293;-69
2022/09/27 09:17:21;;;;;;;;;;;21.30;68.20;;;;;;5010120;28;1516;-70
2022/09/27 09:19:46;;;;;;;;;;;21.30;68.20;;;;;;5011689;28;855;-71
2022/09/27 09:22:21;;;;;;;;;;;21.30;68.30;;;;;;5010409;28;2091;-71
2022/09/27 09:24:56;;;;;;;;;;;21.30;68.30;;;;;;4994274;28;1926;-72
2022/09/27 09:27:26;;;;;;;;;;;21.30;68.30;;;;;;5011661;28;1413;-72
2022/09/27 09:30:12;;;;;;;;;;;21.30;68.40;;;;;;4998200;28;1386;-71
2022/09/27 09:33:00;;;;;;;;;;;21.30;68.30;;;;;;4994102;28;1336;-69
2022/09/27 09:35:37;;;;;;;;;;;21.20;68.30;;;;;;5009999;28;1405;-68
2022/09/27 09:38:04;;;;;;;;;;;21.20;68.30;;;;;;5012031;28;1581;-71
2022/09/27 09:40:39;;;;;;;;;;;21.30;68.40;;;;;;4994222;28;1416;-71
2022/09/27 09:43:04;;;;;;;;;;;21.20;69.10;;;;;;5009352;28;1906;-70
2022/09/27 09:45:31;;;;;;;;;;;21.20;68.40;;;;;;4988928;28;1280;-71
2022/09/27 09:48:03;;;;;;;;;;;21.20;68.50;;;;;;4991548;28;1102;-71
2022/09/27 09:50:35;;;;;;;;;;;21.20;68.40;;;;;;5009059;28;800;-68
2022/09/27 09:53:11;;;;;;;;;;;21.20;68.40;;;;;;5005008;28;1629;-70
2022/09/27 09:55:37;;;;;;;;;;;21.20;68.40;;;;;;5008379;28;1376;-70
2022/09/27 09:58:11;;;;;;;;;;;21.20;68.50;;;;;;4994052;28;1269;-71
2022/09/27 10:00:37;;;;;;;;;;;21.20;68.50;;;;;;5008923;28;916;-71
2022/09/27 10:03:03;;;;;;;;;;;21.20;68.60;;;;;;4976853;28;1915;-68
2022/09/27 10:05:29;;;;;;;;;;;21.10;68.50;;;;;;5001704;28;1308;-71
2022/09/27 10:07:56;;;;;;;;;;;21.10;68.70;;;;;;4989870;28;928;-70
2022/09/27 10:10:22;;;;;;;;;;;21.10;68.70;;;;;;4993295;28;1105;-70
2022/09/27 10:12:47;;;;;;;;;;;21.10;68.70;;;;;;4994058;28;806;-71
2022/09/27 10:15:14;;;;;;;;;;;21.10;68.70;;;;;;5009952;28;1289;-71
2022/09/27 10:17:41;;;;;;;;;;;21.10;68.80;;;;;;4994145;28;1082;-71
2022/09/27 10:20:18;;;;;;;;;;;21.10;68.80;;;;;;4993589;28;937;-70
2022/09/27 10:22:44;;;;;;;;;;;21.10;68.90;;;;;;5008758;28;1918;-71
2022/09/27 10:25:09;;;;;;;;;;;21.10;68.90;;;;;;5007483;28;1264;-71
2022/09/27 10:27:39;;;;;;;;;;;21.10;68.90;;;;;;4994328;28;1293;-70
2022/09/27 10:30:05;;;;;;;;;;;21.10;68.90;;;;;;5010050;28;879;-69
2022/09/27 10:32:32;;;;;;;;;;;21.10;69.00;;;;;;5007243;28;1394;-69
2022/09/27 10:35:16;;;;;;;;;;;21.10;69.80;;;;;;4992998;28;1223;-69
2022/09/27 10:37:42;;;;;;;;;;;21.10;69.00;;;;;;5009229;28;1003;-70
2022/09/27 10:40:27;;;;;;;;;;;21.00;69.00;;;;;;5008058;28;852;-69
2022/09/27 10:42:53;;;;;;;;;;;21.10;69.10;;;;;;5007331;28;1938;-71
2022/09/27 10:45:19;;;;;;;;;;;21.00;69.00;;;;;;5007736;28;1331;-69
2022/09/27 10:47:45;;;;;;;;;;;21.00;69.10;;;;;;5010127;28;880;-69
2022/09/27 10:50:14;;;;;;;;;;;21.00;69.80;;;;;;5009183;28;1308;-70
2022/09/27 10:52:41;;;;;;;;;;;21.00;69.10;;;;;;4974976;28;844;-70
2022/09/27 10:55:20;;;;;;;;;;;21.00;69.20;;;;;;4992141;28;2175;-71
2022/09/27 10:57:49;;;;;;;;;;;21.00;69.00;;;;;;4993481;28;1392;-70
2022/09/27 11:00:21;;;;;;;;;;;21.00;69.00;;;;;;5009854;28;1748;-70
2022/09/27 11:05:30;;;;;;;;;;;21.00;69.00;;;;;;5020791;23;3866;-71
2022/09/27 11:07:56;;;;;;;;;;;21.00;69.00;;;;;;4999292;28;4303;-72
2022/09/27 11:10:30;;;;;;;;;;;21.00;69.00;;;;;;5001894;28;4272;-70
2022/09/27 11:13:13;;;;;;;;;;;21.00;69.10;;;;;;5030200;28;2386;-72
2022/09/27 11:15:58;;;;;;;;;;;21.00;69.10;;;;;;5012806;28;2570;-70
2022/09/27 11:18:28;;;;;;;;;;;21.00;69.20;;;;;;5013877;28;2170;-72
2022/09/27 11:21:00;;;;;;;;;;;21.00;69.20;;;;;;5016472;28;1550;-72
2022/09/27 11:23:38;;;;;;;;;;;21.00;69.20;;;;;;5008820;28;1910;-69
2022/09/27 11:26:22;;;;;;;;;;;21.00;69.30;;;;;;5018770;28;2099;-70
2022/09/27 11:29:06;;;;;;;;;;;21.00;69.30;;;;;;5019858;28;1240;-69
2022/09/27 11:31:50;;;;;;;;;;;21.00;69.30;;;;;;5018986;28;1224;-70
2022/09/27 11:34:25;;;;;;;;;;;21.00;69.30;;;;;;5017512;28;1440;-70
2022/09/27 11:37:09;;;;;;;;;;;21.00;69.30;;;;;;5016654;28;1276;-69
2022/09/27 11:39:39;;;;;;;;;;;20.90;69.20;;;;;;5017685;28;781;-71
2022/09/27 11:42:25;;;;;;;;;;;20.90;69.20;;;;;;5014311;28;769;-71
2022/09/27 11:44:50;;;;;;;;;;;20.90;69.30;;;;;;5017789;28;1971;-70
2022/09/27 11:47:32;;;;;;;;;;;20.90;69.30;;;;;;5020433;28;2088;-70
2022/09/27 11:50:17;;;;;;;;;;;20.90;69.30;;;;;;5015938;28;1425;-68
2022/09/27 11:52:52;;;;;;;;;;;20.90;69.40;;;;;;5015208;28;875;-69
2022/09/27 11:55:19;;;;;;;;;;;20.90;69.40;;;;;;5017205;28;1897;-69
2022/09/27 11:57:51;;;;;;;;;;;20.90;69.40;;;;;;5005391;28;4912;-68
2022/09/27 12:00:20;;;;;;;;;;;20.90;69.40;;;;;;5015873;28;4400;-70
2022/09/27 12:02:45;;;;;;;;;;;20.90;69.40;;;;;;4990738;28;4219;-70
2022/09/27 12:05:30;;;;;;;;;;;20.90;69.50;;;;;;5019218;28;1268;-70
2022/09/27 12:07:58;;;;;;;;;;;20.90;69.40;;;;;;5023064;28;1466;-70
2022/09/27 12:10:24;;;;;;;;;;;20.90;69.50;;;;;;4997336;28;5522;-69
2022/09/27 12:12:50;;;;;;;;;;;20.90;69.50;;;;;;5018791;28;4619;-69
2022/09/27 12:15:17;;;;;;;;;;;20.90;69.50;;;;;;5023851;28;1968;-68
2022/09/27 12:17:43;;;;;;;;;;;20.90;69.50;;;;;;5020064;28;944;-68
2022/09/27 12:20:10;;;;;;;;;;;20.90;69.60;;;;;;5023046;28;911;-69
2022/09/27 12:22:38;;;;;;;;;;;20.90;69.60;;;;;;5023930;28;1300;-69
2022/09/27 12:25:04;;;;;;;;;;;20.90;69.60;;;;;;5024290;28;1291;-69
2022/09/27 12:27:45;;;;;;;;;;;20.90;69.70;;;;;;5023752;28;1273;-68
2022/09/27 12:30:11;;;;;;;;;;;20.90;69.70;;;;;;5018861;28;858;-68
2022/09/27 12:32:43;;;;;;;;;;;20.90;69.70;;;;;;5018354;28;1445;-68
2022/09/27 12:35:12;;;;;;;;;;;20.90;69.70;;;;;;5023130;28;1324;-68
2022/09/27 12:37:42;;;;;;;;;;;20.90;69.70;;;;;;5022746;28;804;-69
2022/09/27 12:40:15;;;;;;;;;;;20.90;69.70;;;;;;5017409;28;872;-69
2022/09/27 12:42:44;;;;;;;;;;;20.90;69.70;;;;;;5008222;28;1969;-69
2022/09/27 12:45:10;;;;;;;;;;;20.80;69.70;;;;;;5021363;28;1264;-68
2022/09/27 12:47:55;;;;;;;;;;;20.90;69.70;;;;;;5017938;28;1942;-68
2022/09/27 12:50:36;;;;;;;;;;;20.90;69.70;;;;;;5024571;28;2105;-69
2022/09/27 12:53:22;;;;;;;;;;;20.90;69.80;;;;;;5011388;28;4112;-69
2022/09/27 12:55:57;;;;;;;;;;;20.90;69.80;;;;;;5023471;28;1431;-69
2022/09/27 12:58:28;;;;;;;;;;;20.90;69.90;;;;;;5018370;28;1350;-69
2022/09/27 13:00:57;;;;;;;;;;;20.90;69.90;;;;;;5000590;28;4880;-69
2022/09/27 13:03:23;;;;;;;;;;;20.90;69.80;;;;;;5017884;28;1914;-69
2022/09/27 13:05:51;;;;;;;;;;;20.90;69.80;;;;;;5019636;28;1369;-69
2022/09/27 13:08:30;;;;;;;;;;;20.80;69.80;;;;;;5005186;28;4033;-69
2022/09/27 13:11:03;;;;;;;;;;;20.80;69.80;;;;;;5013707;28;3886;-69
2022/09/27 13:13:29;;;;;;;;;;;20.90;69.80;;;;;;5024597;28;1988;-68
2022/09/27 13:15:55;;;;;;;;;;;20.80;69.80;;;;;;5012420;28;4929;-69
2022/09/27 13:18:24;;;;;;;;;;;20.90;69.90;;;;;;4996081;28;4620;-68
2022/09/27 13:20:50;;;;;;;;;;;20.80;69.80;;;;;;5020052;28;1418;-68
2022/09/27 13:23:19;;;;;;;;;;;20.80;69.80;;;;;;5022347;28;1914;-68
2022/09/27 13:25:48;;;;;;;;;;;20.90;69.90;;;;;;5013972;28;4736;-68
2022/09/27 13:28:30;;;;;;;;;;;20.80;69.90;;;;;;5024957;28;1866;-68
2022/09/27 13:31:06;;;;;;;;;;;20.80;69.90;;;;;;5011631;28;5006;-69
2022/09/27 13:33:48;;;;;;;;;;;20.80;69.90;;;;;;5022525;28;1902;-67
2022/09/27 13:36:23;;;;;;;;;;;20.80;69.90;;;;;;5024820;28;2159;-69
2022/09/27 13:38:56;;;;;;;;;;;20.80;69.90;;;;;;5027472;28;2828;-66
2022/09/27 13:41:21;;;;;;;;;;;20.80;70.00;;;;;;5018948;28;4367;-68
2022/09/27 13:43:58;;;;;;;;;;;20.80;70.00;;;;;;5026333;28;3525;-67
2022/09/27 13:46:24;;;;;;;;;;;20.80;70.00;;;;;;5019750;28;4116;-68
2022/09/27 13:48:51;;;;;;;;;;;20.80;70.10;;;;;;5015661;28;827;-68
2022/09/27 13:51:23;;;;;;;;;;;20.80;70.00;;;;;;5010069;28;1367;-69
2022/09/27 13:53:55;;;;;;;;;;;20.80;70.10;;;;;;5021136;28;2238;-69
2022/09/27 13:56:45;;;;;;;;;;;20.80;70.90;;;;;;5024797;28;1321;-68
2022/09/27 13:59:31;;;;;;;;;;;20.80;70.10;;;;;;5009890;28;4710;-70
2022/09/27 14:02:05;;;;;;;;;;;20.80;70.10;;;;;;5017703;28;4544;-68
2022/09/27 14:04:41;;;;;;;;;;;20.80;70.20;;;;;;5016650;28;4675;-69
2022/09/27 14:07:07;;;;;;;;;;;20.80;70.10;;;;;;5022372;28;1512;-69
2022/09/27 14:09:34;;;;;;;;;;;20.80;70.20;;;;;;5007508;28;4803;-70
2022/09/27 14:12:00;;;;;;;;;;;20.80;70.20;;;;;;5017933;28;5122;-69
2022/09/27 14:14:26;;;;;;;;;;;20.80;70.20;;;;;;5020154;28;1335;-70
2022/09/27 14:16:53;;;;;;;;;;;20.80;70.20;;;;;;5001306;28;4663;-68
2022/09/27 14:19:19;;;;;;;;;;;20.80;70.20;;;;;;5012172;28;4700;-70
2022/09/27 14:21:45;;;;;;;;;;;20.80;70.10;;;;;;5011864;28;4679;-70
2022/09/27 14:24:24;;;;;;;;;;;20.80;70.20;;;;;;5012646;28;4383;-70
2022/09/27 14:26:49;;;;;;;;;;;20.80;70.30;;;;;;5008435;28;4817;-71
2022/09/27 14:29:18;;;;;;;;;;;20.80;70.30;;;;;;5010057;28;4673;-71
2022/09/27 14:31:44;;;;;;;;;;;20.80;70.30;;;;;;5013043;28;4521;-71
2022/09/27 14:34:09;;;;;;;;;;;20.80;70.40;;;;;;5010234;28;4608;-71
2022/09/27 14:39:31;;;;;;;;;;;20.80;70.40;;;;;;5004395;28;4668;-69
2022/09/27 14:41:59;;;;;;;;;;;20.80;70.40;;;;;;5020966;28;4643;-77
2022/09/27 14:44:25;;;;;;;;;;;20.80;70.40;;;;;;5017687;28;3051;-69
2022/09/27 14:47:09;;;;;;;;;;;20.80;70.40;;;;;;5017751;28;1320;-69
2022/09/27 14:49:35;;;;;;;;;;;20.80;70.50;;;;;;5018707;28;1903;-71
2022/09/27 14:52:00;;;;;;;;;;;20.80;70.50;;;;;;5019420;28;928;-69
2022/09/27 14:54:30;;;;;;;;;;;20.80;70.50;;;;;;5021893;28;874;-69
2022/09/27 14:56:56;;;;;;;;;;;20.80;70.60;;;;;;5016093;28;1439;-70
2022/09/27 14:59:29;;;;;;;;;;;20.80;70.50;;;;;;5019678;28;1316;-70